sensor_id;sensor_type;location;lat;lon;timestamp;P1;durP1;ratioP1;P2;durP2;ratioP2
62790;SDS011;48830;53.426;10.300;2023-11-19T00:01:31;0.93;;;0.85;;
62790;SDS011;48830;53.426;10.300;2023-11-19T00:03:57;1.73;;;1.05;;
62790;SDS011;48830;53.426;10.300;2023-11-19T00:06:23;1.10;;;1.00;;
62790;SDS011;48830;53.426;10.300;2023-11-19T00:08:50;1.05;;;1.00;;
62790;SDS011;48830;53.426;10.300;2023-11-19T00:11:16;1.42;;;0.93;;
62790;SDS011;48830;53.426;10.300;2023-11-19T00:13:41;1.20;;;0.90;;
62790;SDS011;48830;53.426;10.300;2023-11-19T00:16:07;1.50;;;1.05;;
62790;SDS011;48830;53.426;10.300;2023-11-19T00:18:34;1.15;;;1.00;;
62790;SDS011;48830;53.426;10.300;2023-11-19T00:21:01;0.85;;;0.85;;
62790;SDS011;48830;53.426;10.300;2023-11-19T00:23:27;0.98;;;0.80;;
62790;SDS011;48830;53.426;10.300;2023-11-19T00:25:53;1.17;;;0.95;;
62790;SDS011;48830;53.426;10.300;2023-11-19T00:28:18;1.50;;;1.10;;
62790;SDS011;48830;53.426;10.300;2023-11-19T00:30:44;1.05;;;0.90;;
62790;SDS011;48830;53.426;10.300;2023-11-19T00:33:09;1.10;;;1.00;;
62790;SDS011;48830;53.426;10.300;2023-11-19T00:35:35;0.90;;;0.90;;
62790;SDS011;48830;53.426;10.300;2023-11-19T00:38:01;1.67;;;0.80;;
62790;SDS011;48830;53.426;10.300;2023-11-19T00:40:27;1.60;;;0.93;;
62790;SDS011;48830;53.426;10.300;2023-11-19T00:42:53;0.90;;;0.90;;
62790;SDS011;48830;53.426;10.300;2023-11-19T00:45:19;0.82;;;0.80;;
62790;SDS011;48830;53.426;10.300;2023-11-19T00:47:44;1.10;;;1.00;;
62790;SDS011;48830;53.426;10.300;2023-11-19T00:50:10;1.58;;;1.00;;
62790;SDS011;48830;53.426;10.300;2023-11-19T00:52:36;1.05;;;0.90;;
62790;SDS011;48830;53.426;10.300;2023-11-19T00:55:02;0.90;;;0.90;;
62790;SDS011;48830;53.426;10.300;2023-11-19T00:57:30;1.30;;;1.00;;
62790;SDS011;48830;53.426;10.300;2023-11-19T00:59:57;0.80;;;0.80;;
62790;SDS011;48830;53.426;10.300;2023-11-19T01:02:23;1.60;;;0.90;;
62790;SDS011;48830;53.426;10.300;2023-11-19T01:04:49;0.80;;;0.80;;
62790;SDS011;48830;53.426;10.300;2023-11-19T01:07:15;1.63;;;1.08;;
62790;SDS011;48830;53.426;10.300;2023-11-19T01:09:41;0.85;;;0.85;;
62790;SDS011;48830;53.426;10.300;2023-11-19T01:12:07;1.88;;;1.30;;
62790;SDS011;48830;53.426;10.300;2023-11-19T01:14:34;1.35;;;0.90;;
62790;SDS011;48830;53.426;10.300;2023-11-19T01:17:00;0.90;;;0.90;;
62790;SDS011;48830;53.426;10.300;2023-11-19T01:19:26;0.90;;;0.90;;
62790;SDS011;48830;53.426;10.300;2023-11-19T01:21:53;1.27;;;1.10;;
62790;SDS011;48830;53.426;10.300;2023-11-19T01:24:19;0.98;;;0.90;;
62790;SDS011;48830;53.426;10.300;2023-11-19T01:26:45;0.88;;;0.88;;
62790;SDS011;48830;53.426;10.300;2023-11-19T01:29:12;1.23;;;0.98;;
62790;SDS011;48830;53.426;10.300;2023-11-19T01:31:45;1.10;;;1.00;;
62790;SDS011;48830;53.426;10.300;2023-11-19T01:34:12;1.75;;;0.80;;
62790;SDS011;48830;53.426;10.300;2023-11-19T01:36:37;1.05;;;0.98;;
62790;SDS011;48830;53.426;10.300;2023-11-19T01:39:03;1.58;;;0.95;;
62790;SDS011;48830;53.426;10.300;2023-11-19T01:41:33;1.00;;;0.90;;
62790;SDS011;48830;53.426;10.300;2023-11-19T01:44:01;0.90;;;0.85;;
62790;SDS011;48830;53.426;10.300;2023-11-19T01:46:26;0.80;;;0.80;;
62790;SDS011;48830;53.426;10.300;2023-11-19T01:48:52;0.63;;;0.63;;
62790;SDS011;48830;53.426;10.300;2023-11-19T01:51:19;0.80;;;0.80;;
62790;SDS011;48830;53.426;10.300;2023-11-19T01:53:46;0.77;;;0.77;;
62790;SDS011;48830;53.426;10.300;2023-11-19T01:56:13;0.77;;;0.70;;
62790;SDS011;48830;53.426;10.300;2023-11-19T01:58:40;0.93;;;0.80;;
62790;SDS011;48830;53.426;10.300;2023-11-19T02:01:07;1.00;;;1.00;;
62790;SDS011;48830;53.426;10.300;2023-11-19T02:03:32;1.48;;;1.00;;
62790;SDS011;48830;53.426;10.300;2023-11-19T02:06:02;1.00;;;0.90;;
62790;SDS011;48830;53.426;10.300;2023-11-19T02:08:29;0.73;;;0.73;;
62790;SDS011;48830;53.426;10.300;2023-11-19T02:10:55;1.42;;;1.00;;
62790;SDS011;48830;53.426;10.300;2023-11-19T02:13:23;1.02;;;0.90;;
62790;SDS011;48830;53.426;10.300;2023-11-19T02:15:50;0.82;;;0.80;;
62790;SDS011;48830;53.426;10.300;2023-11-19T02:18:22;0.95;;;0.85;;
62790;SDS011;48830;53.426;10.300;2023-11-19T02:20:53;0.82;;;0.82;;
62790;SDS011;48830;53.426;10.300;2023-11-19T02:23:22;0.90;;;0.90;;
62790;SDS011;48830;53.426;10.300;2023-11-19T02:26:13;1.10;;;1.00;;
62790;SDS011;48830;53.426;10.300;2023-11-19T02:28:49;1.48;;;0.88;;
62790;SDS011;48830;53.426;10.300;2023-11-19T02:31:15;1.63;;;0.88;;
62790;SDS011;48830;53.426;10.300;2023-11-19T02:33:40;1.88;;;0.90;;
62790;SDS011;48830;53.426;10.300;2023-11-19T02:36:06;0.80;;;0.80;;
62790;SDS011;48830;53.426;10.300;2023-11-19T02:38:33;1.75;;;0.90;;
62790;SDS011;48830;53.426;10.300;2023-11-19T02:41:00;0.73;;;0.73;;
62790;SDS011;48830;53.426;10.300;2023-11-19T02:43:28;1.25;;;0.70;;
62790;SDS011;48830;53.426;10.300;2023-11-19T02:45:53;0.65;;;0.65;;
62790;SDS011;48830;53.426;10.300;2023-11-19T02:48:21;1.00;;;0.85;;
62790;SDS011;48830;53.426;10.300;2023-11-19T02:50:46;0.63;;;0.63;;
62790;SDS011;48830;53.426;10.300;2023-11-19T02:53:13;1.20;;;0.90;;
62790;SDS011;48830;53.426;10.300;2023-11-19T02:55:38;0.75;;;0.75;;
62790;SDS011;48830;53.426;10.300;2023-11-19T02:58:06;0.75;;;0.70;;
62790;SDS011;48830;53.426;10.300;2023-11-19T03:00:45;0.98;;;0.85;;
62790;SDS011;48830;53.426;10.300;2023-11-19T03:03:19;1.20;;;1.10;;
62790;SDS011;48830;53.426;10.300;2023-11-19T03:05:51;0.80;;;0.80;;
62790;SDS011;48830;53.426;10.300;2023-11-19T03:08:16;0.80;;;0.80;;
62790;SDS011;48830;53.426;10.300;2023-11-19T03:10:42;0.95;;;0.88;;
62790;SDS011;48830;53.426;10.300;2023-11-19T03:13:12;1.00;;;0.70;;
62790;SDS011;48830;53.426;10.300;2023-11-19T03:15:42;0.93;;;0.80;;
62790;SDS011;48830;53.426;10.300;2023-11-19T03:18:08;0.77;;;0.73;;
62790;SDS011;48830;53.426;10.300;2023-11-19T03:20:34;0.70;;;0.60;;
62790;SDS011;48830;53.426;10.300;2023-11-19T03:22:59;1.58;;;1.05;;
62790;SDS011;48830;53.426;10.300;2023-11-19T03:25:27;1.08;;;0.98;;
62790;SDS011;48830;53.426;10.300;2023-11-19T03:27:58;0.80;;;0.80;;
62790;SDS011;48830;53.426;10.300;2023-11-19T03:30:27;1.33;;;0.85;;
62790;SDS011;48830;53.426;10.300;2023-11-19T03:32:53;0.70;;;0.70;;
62790;SDS011;48830;53.426;10.300;2023-11-19T03:35:19;2.65;;;0.90;;
62790;SDS011;48830;53.426;10.300;2023-11-19T03:37:46;1.38;;;1.00;;
62790;SDS011;48830;53.426;10.300;2023-11-19T03:40:12;0.77;;;0.70;;
62790;SDS011;48830;53.426;10.300;2023-11-19T03:42:37;0.77;;;0.77;;
62790;SDS011;48830;53.426;10.300;2023-11-19T03:45:05;0.80;;;0.80;;
62790;SDS011;48830;53.426;10.300;2023-11-19T03:47:33;0.82;;;0.80;;
62790;SDS011;48830;53.426;10.300;2023-11-19T03:49:59;0.70;;;0.70;;
62790;SDS011;48830;53.426;10.300;2023-11-19T03:52:25;0.73;;;0.73;;
62790;SDS011;48830;53.426;10.300;2023-11-19T03:54:52;1.50;;;0.73;;
62790;SDS011;48830;53.426;10.300;2023-11-19T03:57:18;0.77;;;0.77;;
62790;SDS011;48830;53.426;10.300;2023-11-19T03:59:43;0.80;;;0.80;;
62790;SDS011;48830;53.426;10.300;2023-11-19T04:02:09;0.80;;;0.80;;
62790;SDS011;48830;53.426;10.300;2023-11-19T04:04:35;1.15;;;0.75;;
62790;SDS011;48830;53.426;10.300;2023-11-19T04:07:01;0.60;;;0.60;;
62790;SDS011;48830;53.426;10.300;2023-11-19T04:09:28;0.73;;;0.73;;
62790;SDS011;48830;53.426;10.300;2023-11-19T04:11:54;0.60;;;0.60;;
62790;SDS011;48830;53.426;10.300;2023-11-19T04:14:20;0.77;;;0.77;;
62790;SDS011;48830;53.426;10.300;2023-11-19T04:16:45;0.60;;;0.60;;
62790;SDS011;48830;53.426;10.300;2023-11-19T04:19:11;0.60;;;0.60;;
62790;SDS011;48830;53.426;10.300;2023-11-19T04:21:36;0.80;;;0.80;;
62790;SDS011;48830;53.426;10.300;2023-11-19T04:24:02;0.70;;;0.70;;
62790;SDS011;48830;53.426;10.300;2023-11-19T04:26:28;0.70;;;0.70;;
62790;SDS011;48830;53.426;10.300;2023-11-19T04:28:56;0.88;;;0.70;;
62790;SDS011;48830;53.426;10.300;2023-11-19T04:31:21;1.13;;;0.73;;
62790;SDS011;48830;53.426;10.300;2023-11-19T04:33:47;1.00;;;0.82;;
62790;SDS011;48830;53.426;10.300;2023-11-19T04:36:12;1.20;;;0.60;;
62790;SDS011;48830;53.426;10.300;2023-11-19T04:38:39;0.85;;;0.80;;
62790;SDS011;48830;53.426;10.300;2023-11-19T04:41:05;0.70;;;0.70;;
62790;SDS011;48830;53.426;10.300;2023-11-19T04:43:31;0.63;;;0.60;;
62790;SDS011;48830;53.426;10.300;2023-11-19T04:45:57;0.70;;;0.70;;
62790;SDS011;48830;53.426;10.300;2023-11-19T04:48:23;0.93;;;0.60;;
62790;SDS011;48830;53.426;10.300;2023-11-19T04:50:49;0.88;;;0.80;;
62790;SDS011;48830;53.426;10.300;2023-11-19T04:53:16;1.33;;;0.90;;
62790;SDS011;48830;53.426;10.300;2023-11-19T04:55:42;0.70;;;0.70;;
62790;SDS011;48830;53.426;10.300;2023-11-19T04:58:08;0.70;;;0.70;;
62790;SDS011;48830;53.426;10.300;2023-11-19T05:00:34;0.68;;;0.68;;
62790;SDS011;48830;53.426;10.300;2023-11-19T05:02:59;2.13;;;0.82;;
62790;SDS011;48830;53.426;10.300;2023-11-19T05:05:25;0.70;;;0.70;;
62790;SDS011;48830;53.426;10.300;2023-11-19T05:07:50;0.88;;;0.70;;
62790;SDS011;48830;53.426;10.300;2023-11-19T05:10:16;1.02;;;0.80;;
62790;SDS011;48830;53.426;10.300;2023-11-19T05:12:41;0.65;;;0.65;;
62790;SDS011;48830;53.426;10.300;2023-11-19T05:15:07;1.15;;;1.05;;
62790;SDS011;48830;53.426;10.300;2023-11-19T05:17:33;0.63;;;0.63;;
62790;SDS011;48830;53.426;10.300;2023-11-19T05:19:58;1.05;;;0.80;;
62790;SDS011;48830;53.426;10.300;2023-11-19T05:22:24;2.03;;;0.98;;
62790;SDS011;48830;53.426;10.300;2023-11-19T05:24:51;0.70;;;0.70;;
62790;SDS011;48830;53.426;10.300;2023-11-19T05:27:17;0.50;;;0.50;;
62790;SDS011;48830;53.426;10.300;2023-11-19T05:29:42;1.50;;;0.52;;
62790;SDS011;48830;53.426;10.300;2023-11-19T05:32:09;0.80;;;0.80;;
62790;SDS011;48830;53.426;10.300;2023-11-19T05:34:35;1.48;;;0.80;;
62790;SDS011;48830;53.426;10.300;2023-11-19T05:37:00;1.05;;;0.75;;
62790;SDS011;48830;53.426;10.300;2023-11-19T05:39:27;0.60;;;0.60;;
62790;SDS011;48830;53.426;10.300;2023-11-19T05:41:53;0.68;;;0.60;;
62790;SDS011;48830;53.426;10.300;2023-11-19T05:44:18;0.60;;;0.60;;
62790;SDS011;48830;53.426;10.300;2023-11-19T05:46:44;0.70;;;0.70;;
62790;SDS011;48830;53.426;10.300;2023-11-19T05:49:10;0.82;;;0.65;;
62790;SDS011;48830;53.426;10.300;2023-11-19T05:51:37;0.68;;;0.60;;
62790;SDS011;48830;53.426;10.300;2023-11-19T05:54:03;0.68;;;0.68;;
62790;SDS011;48830;53.426;10.300;2023-11-19T05:56:31;0.60;;;0.60;;
62790;SDS011;48830;53.426;10.300;2023-11-19T05:58:58;1.13;;;0.80;;
62790;SDS011;48830;53.426;10.300;2023-11-19T06:01:26;0.63;;;0.63;;
62790;SDS011;48830;53.426;10.300;2023-11-19T06:03:52;0.57;;;0.57;;
62790;SDS011;48830;53.426;10.300;2023-11-19T06:06:17;0.60;;;0.60;;
62790;SDS011;48830;53.426;10.300;2023-11-19T06:08:43;0.68;;;0.65;;
62790;SDS011;48830;53.426;10.300;2023-11-19T06:11:10;1.00;;;0.60;;
62790;SDS011;48830;53.426;10.300;2023-11-19T06:13:40;0.60;;;0.60;;
62790;SDS011;48830;53.426;10.300;2023-11-19T06:16:05;0.70;;;0.70;;
62790;SDS011;48830;53.426;10.300;2023-11-19T06:18:31;1.05;;;0.75;;
62790;SDS011;48830;53.426;10.300;2023-11-19T06:20:56;0.95;;;0.70;;
62790;SDS011;48830;53.426;10.300;2023-11-19T06:23:22;0.73;;;0.70;;
62790;SDS011;48830;53.426;10.300;2023-11-19T06:25:47;0.80;;;0.73;;
62790;SDS011;48830;53.426;10.300;2023-11-19T06:28:13;0.70;;;0.70;;
62790;SDS011;48830;53.426;10.300;2023-11-19T06:30:38;0.95;;;0.75;;
62790;SDS011;48830;53.426;10.300;2023-11-19T06:33:04;0.60;;;0.60;;
62790;SDS011;48830;53.426;10.300;2023-11-19T06:35:29;2.08;;;0.63;;
62790;SDS011;48830;53.426;10.300;2023-11-19T06:38:01;1.45;;;0.80;;
62790;SDS011;48830;53.426;10.300;2023-11-19T06:40:28;0.95;;;0.82;;
62790;SDS011;48830;53.426;10.300;2023-11-19T06:42:55;0.60;;;0.60;;
62790;SDS011;48830;53.426;10.300;2023-11-19T06:45:20;0.70;;;0.70;;
62790;SDS011;48830;53.426;10.300;2023-11-19T06:47:45;0.93;;;0.60;;
62790;SDS011;48830;53.426;10.300;2023-11-19T06:50:11;1.33;;;0.70;;
62790;SDS011;48830;53.426;10.300;2023-11-19T06:52:37;0.68;;;0.68;;
62790;SDS011;48830;53.426;10.300;2023-11-19T06:55:03;0.70;;;0.70;;
62790;SDS011;48830;53.426;10.300;2023-11-19T06:57:29;0.80;;;0.80;;
62790;SDS011;48830;53.426;10.300;2023-11-19T06:59:57;0.82;;;0.80;;
62790;SDS011;48830;53.426;10.300;2023-11-19T07:02:23;1.05;;;0.70;;
62790;SDS011;48830;53.426;10.300;2023-11-19T07:04:49;1.00;;;0.70;;
62790;SDS011;48830;53.426;10.300;2023-11-19T07:07:15;0.82;;;0.60;;
62790;SDS011;48830;53.426;10.300;2023-11-19T07:09:40;0.85;;;0.63;;
62790;SDS011;48830;53.426;10.300;2023-11-19T07:12:06;0.60;;;0.60;;
62790;SDS011;48830;53.426;10.300;2023-11-19T07:14:31;0.73;;;0.57;;
62790;SDS011;48830;53.426;10.300;2023-11-19T07:16:57;0.60;;;0.60;;
62790;SDS011;48830;53.426;10.300;2023-11-19T07:19:23;0.80;;;0.80;;
62790;SDS011;48830;53.426;10.300;2023-11-19T07:21:48;0.90;;;0.60;;
62790;SDS011;48830;53.426;10.300;2023-11-19T07:24:14;0.70;;;0.70;;
62790;SDS011;48830;53.426;10.300;2023-11-19T07:26:43;0.68;;;0.68;;
62790;SDS011;48830;53.426;10.300;2023-11-19T07:29:09;1.50;;;0.70;;
62790;SDS011;48830;53.426;10.300;2023-11-19T07:31:35;2.03;;;0.70;;
62790;SDS011;48830;53.426;10.300;2023-11-19T07:34:01;1.60;;;0.73;;
62790;SDS011;48830;53.426;10.300;2023-11-19T07:36:26;0.95;;;0.70;;
62790;SDS011;48830;53.426;10.300;2023-11-19T07:38:51;5.68;;;1.60;;
62790;SDS011;48830;53.426;10.300;2023-11-19T07:41:18;1.13;;;0.70;;
62790;SDS011;48830;53.426;10.300;2023-11-19T07:43:45;0.88;;;0.80;;
62790;SDS011;48830;53.426;10.300;2023-11-19T07:46:12;1.52;;;0.80;;
62790;SDS011;48830;53.426;10.300;2023-11-19T07:48:38;0.95;;;0.70;;
62790;SDS011;48830;53.426;10.300;2023-11-19T07:51:07;1.17;;;0.88;;
62790;SDS011;48830;53.426;10.300;2023-11-19T07:53:33;0.80;;;0.80;;
62790;SDS011;48830;53.426;10.300;2023-11-19T07:55:59;0.70;;;0.70;;
62790;SDS011;48830;53.426;10.300;2023-11-19T07:58:25;2.00;;;0.82;;
62790;SDS011;48830;53.426;10.300;2023-11-19T08:00:50;0.82;;;0.82;;
62790;SDS011;48830;53.426;10.300;2023-11-19T08:03:17;1.85;;;0.90;;
62790;SDS011;48830;53.426;10.300;2023-11-19T08:05:44;1.67;;;0.80;;
62790;SDS011;48830;53.426;10.300;2023-11-19T08:08:11;1.52;;;0.90;;
62790;SDS011;48830;53.426;10.300;2023-11-19T08:10:37;0.95;;;0.85;;
62790;SDS011;48830;53.426;10.300;2023-11-19T08:13:02;1.02;;;0.80;;
62790;SDS011;48830;53.426;10.300;2023-11-19T08:15:28;0.90;;;0.75;;
62790;SDS011;48830;53.426;10.300;2023-11-19T08:17:54;2.25;;;0.90;;
62790;SDS011;48830;53.426;10.300;2023-11-19T08:20:20;0.90;;;0.70;;
62790;SDS011;48830;53.426;10.300;2023-11-19T08:22:45;0.50;;;0.50;;
62790;SDS011;48830;53.426;10.300;2023-11-19T08:25:11;3.10;;;1.00;;
62790;SDS011;48830;53.426;10.300;2023-11-19T08:27:36;0.98;;;0.80;;
62790;SDS011;48830;53.426;10.300;2023-11-19T08:30:02;1.25;;;0.93;;
62790;SDS011;48830;53.426;10.300;2023-11-19T08:32:28;1.85;;;0.80;;
62790;SDS011;48830;53.426;10.300;2023-11-19T08:34:53;3.10;;;1.05;;
62790;SDS011;48830;53.426;10.300;2023-11-19T08:37:19;4.38;;;1.33;;
62790;SDS011;48830;53.426;10.300;2023-11-19T08:39:46;2.38;;;0.90;;
62790;SDS011;48830;53.426;10.300;2023-11-19T08:42:12;1.58;;;0.90;;
62790;SDS011;48830;53.426;10.300;2023-11-19T08:44:38;1.40;;;0.88;;
62790;SDS011;48830;53.426;10.300;2023-11-19T08:47:03;1.85;;;1.00;;
62790;SDS011;48830;53.426;10.300;2023-11-19T08:49:29;0.80;;;0.80;;
62790;SDS011;48830;53.426;10.300;2023-11-19T08:51:54;1.08;;;0.88;;
62790;SDS011;48830;53.426;10.300;2023-11-19T08:54:20;2.95;;;1.00;;
62790;SDS011;48830;53.426;10.300;2023-11-19T08:56:47;2.67;;;0.85;;
62790;SDS011;48830;53.426;10.300;2023-11-19T08:59:13;2.15;;;0.93;;
62790;SDS011;48830;53.426;10.300;2023-11-19T09:01:40;2.13;;;0.90;;
62790;SDS011;48830;53.426;10.300;2023-11-19T09:04:06;1.90;;;0.93;;
62790;SDS011;48830;53.426;10.300;2023-11-19T09:06:31;2.22;;;0.80;;
62790;SDS011;48830;53.426;10.300;2023-11-19T09:08:57;2.58;;;1.00;;
62790;SDS011;48830;53.426;10.300;2023-11-19T09:11:26;2.17;;;1.10;;
62790;SDS011;48830;53.426;10.300;2023-11-19T09:13:52;2.55;;;0.77;;
62790;SDS011;48830;53.426;10.300;2023-11-19T09:16:17;1.92;;;1.00;;
62790;SDS011;48830;53.426;10.300;2023-11-19T09:18:43;1.67;;;1.00;;
62790;SDS011;48830;53.426;10.300;2023-11-19T09:21:10;1.95;;;0.88;;
62790;SDS011;48830;53.426;10.300;2023-11-19T09:23:36;2.88;;;1.13;;
62790;SDS011;48830;53.426;10.300;2023-11-19T09:26:04;5.28;;;1.20;;
62790;SDS011;48830;53.426;10.300;2023-11-19T09:28:31;3.03;;;1.17;;
62790;SDS011;48830;53.426;10.300;2023-11-19T09:30:56;2.45;;;1.00;;
62790;SDS011;48830;53.426;10.300;2023-11-19T09:33:22;1.98;;;1.00;;
62790;SDS011;48830;53.426;10.300;2023-11-19T09:35:47;2.40;;;0.80;;
62790;SDS011;48830;53.426;10.300;2023-11-19T09:38:14;1.90;;;1.00;;
62790;SDS011;48830;53.426;10.300;2023-11-19T09:40:40;3.97;;;1.50;;
62790;SDS011;48830;53.426;10.300;2023-11-19T09:43:07;3.35;;;1.20;;
62790;SDS011;48830;53.426;10.300;2023-11-19T09:45:35;3.45;;;1.00;;
62790;SDS011;48830;53.426;10.300;2023-11-19T09:48:17;4.95;;;1.20;;
62790;SDS011;48830;53.426;10.300;2023-11-19T09:50:46;3.50;;;1.20;;
62790;SDS011;48830;53.426;10.300;2023-11-19T09:53:13;3.50;;;1.48;;
62790;SDS011;48830;53.426;10.300;2023-11-19T09:55:39;2.83;;;1.10;;
62790;SDS011;48830;53.426;10.300;2023-11-19T09:58:05;2.83;;;0.98;;
62790;SDS011;48830;53.426;10.300;2023-11-19T10:00:32;5.40;;;1.17;;
62790;SDS011;48830;53.426;10.300;2023-11-19T10:02:57;3.65;;;1.25;;
62790;SDS011;48830;53.426;10.300;2023-11-19T10:05:24;5.78;;;1.40;;
62790;SDS011;48830;53.426;10.300;2023-11-19T10:07:51;3.55;;;1.17;;
62790;SDS011;48830;53.426;10.300;2023-11-19T10:10:17;3.22;;;1.00;;
62790;SDS011;48830;53.426;10.300;2023-11-19T10:12:47;3.58;;;1.25;;
62790;SDS011;48830;53.426;10.300;2023-11-19T10:15:17;3.88;;;1.38;;
62790;SDS011;48830;53.426;10.300;2023-11-19T10:17:47;2.15;;;1.20;;
62790;SDS011;48830;53.426;10.300;2023-11-19T10:20:13;3.05;;;1.30;;
62790;SDS011;48830;53.426;10.300;2023-11-19T10:22:39;5.65;;;1.40;;
62790;SDS011;48830;53.426;10.300;2023-11-19T10:25:05;3.30;;;1.17;;
62790;SDS011;48830;53.426;10.300;2023-11-19T10:27:47;5.20;;;1.60;;
62790;SDS011;48830;53.426;10.300;2023-11-19T10:30:13;3.25;;;1.02;;
62790;SDS011;48830;53.426;10.300;2023-11-19T10:32:43;3.30;;;1.20;;
62790;SDS011;48830;53.426;10.300;2023-11-19T10:35:08;4.20;;;1.20;;
62790;SDS011;48830;53.426;10.300;2023-11-19T10:37:37;3.50;;;1.27;;
62790;SDS011;48830;53.426;10.300;2023-11-19T10:40:02;5.07;;;1.60;;
62790;SDS011;48830;53.426;10.300;2023-11-19T10:42:30;2.92;;;1.38;;
62790;SDS011;48830;53.426;10.300;2023-11-19T10:44:56;4.80;;;1.73;;
62790;SDS011;48830;53.426;10.300;2023-11-19T10:47:22;3.20;;;1.15;;
62790;SDS011;48830;53.426;10.300;2023-11-19T10:49:49;2.25;;;1.10;;
62790;SDS011;48830;53.426;10.300;2023-11-19T10:52:18;4.60;;;1.30;;
62790;SDS011;48830;53.426;10.300;2023-11-19T10:54:49;3.47;;;1.20;;
62790;SDS011;48830;53.426;10.300;2023-11-19T10:57:19;4.88;;;1.25;;
62790;SDS011;48830;53.426;10.300;2023-11-19T10:59:47;4.05;;;1.20;;
62790;SDS011;48830;53.426;10.300;2023-11-19T11:02:16;3.10;;;1.15;;
62790;SDS011;48830;53.426;10.300;2023-11-19T11:04:46;4.93;;;1.42;;
62790;SDS011;48830;53.426;10.300;2023-11-19T11:07:12;2.15;;;1.00;;
62790;SDS011;48830;53.426;10.300;2023-11-19T11:09:41;3.22;;;1.42;;
62790;SDS011;48830;53.426;10.300;2023-11-19T11:12:07;3.78;;;1.30;;
62790;SDS011;48830;53.426;10.300;2023-11-19T11:14:35;3.72;;;1.30;;
62790;SDS011;48830;53.426;10.300;2023-11-19T11:17:03;3.40;;;1.13;;
62790;SDS011;48830;53.426;10.300;2023-11-19T11:19:33;4.05;;;1.17;;
62790;SDS011;48830;53.426;10.300;2023-11-19T11:21:59;2.53;;;1.20;;
62790;SDS011;48830;53.426;10.300;2023-11-19T11:24:32;2.28;;;1.20;;
62790;SDS011;48830;53.426;10.300;2023-11-19T11:38:31;5.22;;;1.52;;
62790;SDS011;48830;53.426;10.300;2023-11-19T11:41:16;2.28;;;1.10;;
62790;SDS011;48830;53.426;10.300;2023-11-19T11:43:49;2.20;;;1.08;;
62790;SDS011;48830;53.426;10.300;2023-11-19T11:48:57;3.72;;;1.08;;
62790;SDS011;48830;53.426;10.300;2023-11-19T11:54:09;3.88;;;1.20;;
62790;SDS011;48830;53.426;10.300;2023-11-19T11:56:38;1.90;;;0.98;;
62790;SDS011;48830;53.426;10.300;2023-11-19T11:59:07;3.95;;;1.30;;
62790;SDS011;48830;53.426;10.300;2023-11-19T12:01:57;4.20;;;1.10;;
62790;SDS011;48830;53.426;10.300;2023-11-19T12:04:26;3.08;;;1.33;;
62790;SDS011;48830;53.426;10.300;2023-11-19T12:07:03;3.65;;;1.30;;
62790;SDS011;48830;53.426;10.300;2023-11-19T12:10:07;3.25;;;1.20;;
62790;SDS011;48830;53.426;10.300;2023-11-19T12:12:33;2.35;;;1.08;;
62790;SDS011;48830;53.426;10.300;2023-11-19T12:15:04;4.43;;;1.45;;
62790;SDS011;48830;53.426;10.300;2023-11-19T12:20:00;3.65;;;1.27;;
62790;SDS011;48830;53.426;10.300;2023-11-19T12:22:26;2.28;;;1.10;;
62790;SDS011;48830;53.426;10.300;2023-11-19T12:24:55;2.33;;;1.10;;
62790;SDS011;48830;53.426;10.300;2023-11-19T12:27:21;3.15;;;1.20;;
62790;SDS011;48830;53.426;10.300;2023-11-19T12:29:51;2.25;;;1.20;;
62790;SDS011;48830;53.426;10.300;2023-11-19T12:32:17;6.22;;;1.38;;
62790;SDS011;48830;53.426;10.300;2023-11-19T12:34:44;2.65;;;1.30;;
62790;SDS011;48830;53.426;10.300;2023-11-19T12:37:10;2.38;;;1.00;;
62790;SDS011;48830;53.426;10.300;2023-11-19T12:39:36;3.78;;;1.30;;
62790;SDS011;48830;53.426;10.300;2023-11-19T12:42:01;4.45;;;1.40;;
62790;SDS011;48830;53.426;10.300;2023-11-19T12:44:27;2.72;;;1.30;;
62790;SDS011;48830;53.426;10.300;2023-11-19T12:47:02;2.17;;;1.13;;
62790;SDS011;48830;53.426;10.300;2023-11-19T12:49:32;2.22;;;1.00;;
62790;SDS011;48830;53.426;10.300;2023-11-19T12:51:58;2.70;;;1.15;;
62790;SDS011;48830;53.426;10.300;2023-11-19T12:54:37;2.92;;;1.20;;
62790;SDS011;48830;53.426;10.300;2023-11-19T12:57:03;2.70;;;1.17;;
62790;SDS011;48830;53.426;10.300;2023-11-19T12:59:30;3.83;;;1.30;;
62790;SDS011;48830;53.426;10.300;2023-11-19T13:01:56;2.60;;;1.20;;
62790;SDS011;48830;53.426;10.300;2023-11-19T13:04:29;1.85;;;0.98;;
62790;SDS011;48830;53.426;10.300;2023-11-19T13:07:01;2.35;;;0.90;;
62790;SDS011;48830;53.426;10.300;2023-11-19T13:09:29;3.95;;;1.60;;
62790;SDS011;48830;53.426;10.300;2023-11-19T13:11:55;3.58;;;1.30;;
62790;SDS011;48830;53.426;10.300;2023-11-19T13:14:35;2.72;;;1.05;;
62790;SDS011;48830;53.426;10.300;2023-11-19T13:17:03;3.00;;;1.23;;
62790;SDS011;48830;53.426;10.300;2023-11-19T13:19:28;3.05;;;1.13;;
62790;SDS011;48830;53.426;10.300;2023-11-19T13:21:54;3.35;;;1.17;;
62790;SDS011;48830;53.426;10.300;2023-11-19T13:24:19;2.70;;;1.10;;
62790;SDS011;48830;53.426;10.300;2023-11-19T13:26:45;2.72;;;1.15;;
62790;SDS011;48830;53.426;10.300;2023-11-19T13:29:11;1.95;;;1.00;;
62790;SDS011;48830;53.426;10.300;2023-11-19T13:31:36;3.38;;;1.30;;
62790;SDS011;48830;53.426;10.300;2023-11-19T13:34:03;2.97;;;1.02;;
62790;SDS011;48830;53.426;10.300;2023-11-19T13:36:28;3.08;;;1.42;;
62790;SDS011;48830;53.426;10.300;2023-11-19T13:38:54;3.38;;;1.27;;
62790;SDS011;48830;53.426;10.300;2023-11-19T13:41:24;4.03;;;1.30;;
62790;SDS011;48830;53.426;10.300;2023-11-19T13:43:50;2.88;;;1.17;;
62790;SDS011;48830;53.426;10.300;2023-11-19T13:46:16;3.85;;;1.48;;
62790;SDS011;48830;53.426;10.300;2023-11-19T13:48:42;3.05;;;1.42;;
62790;SDS011;48830;53.426;10.300;2023-11-19T13:51:07;4.10;;;1.40;;
62790;SDS011;48830;53.426;10.300;2023-11-19T13:53:35;4.50;;;1.35;;
62790;SDS011;48830;53.426;10.300;2023-11-19T13:56:00;1.98;;;1.10;;
62790;SDS011;48830;53.426;10.300;2023-11-19T13:58:26;2.95;;;1.13;;
62790;SDS011;48830;53.426;10.300;2023-11-19T14:00:51;2.40;;;1.20;;
62790;SDS011;48830;53.426;10.300;2023-11-19T14:03:17;5.35;;;1.60;;
62790;SDS011;48830;53.426;10.300;2023-11-19T14:05:42;3.20;;;1.10;;
62790;SDS011;48830;53.426;10.300;2023-11-19T14:08:07;2.50;;;1.00;;
62790;SDS011;48830;53.426;10.300;2023-11-19T14:10:39;2.25;;;1.00;;
62790;SDS011;48830;53.426;10.300;2023-11-19T14:13:08;1.52;;;1.25;;
62790;SDS011;48830;53.426;10.300;2023-11-19T14:15:33;2.25;;;1.27;;
62790;SDS011;48830;53.426;10.300;2023-11-19T14:18:00;1.83;;;0.93;;
62790;SDS011;48830;53.426;10.300;2023-11-19T14:20:25;3.75;;;1.20;;
62790;SDS011;48830;53.426;10.300;2023-11-19T14:22:51;3.75;;;1.17;;
62790;SDS011;48830;53.426;10.300;2023-11-19T14:25:17;3.40;;;1.20;;
62790;SDS011;48830;53.426;10.300;2023-11-19T14:27:44;3.05;;;0.93;;
62790;SDS011;48830;53.426;10.300;2023-11-19T14:30:11;3.78;;;1.25;;
62790;SDS011;48830;53.426;10.300;2023-11-19T14:32:38;1.58;;;1.10;;
62790;SDS011;48830;53.426;10.300;2023-11-19T14:35:05;1.77;;;1.02;;
62790;SDS011;48830;53.426;10.300;2023-11-19T14:37:31;3.00;;;1.13;;
62790;SDS011;48830;53.426;10.300;2023-11-19T14:39:57;3.22;;;1.02;;
62790;SDS011;48830;53.426;10.300;2023-11-19T14:42:23;3.30;;;1.23;;
62790;SDS011;48830;53.426;10.300;2023-11-19T14:44:53;2.45;;;1.20;;
62790;SDS011;48830;53.426;10.300;2023-11-19T14:47:19;3.55;;;1.55;;
62790;SDS011;48830;53.426;10.300;2023-11-19T14:49:45;2.13;;;1.05;;
62790;SDS011;48830;53.426;10.300;2023-11-19T14:52:11;2.50;;;0.88;;